Terminal Aerodrome Forecast
Issued by NWS

Home | Current Version | Previous Version | Text Only | Print | Product List | Glossary On
Versions: 1 2 3 4 5 6 7 8 9 10 11 12 13 14 15 16 17 18 19 20 21 22 23 24 25 26 27 28
875
FTUS41 KBUF 252335
TAFJHW
TAF
KJHW 252335Z 2600/2624 27017G29KT P6SM VCSH BKN015 OVC040
     FM260300 27014G29KT 4SM -SHSN OVC015
      TEMPO 2603/2607 1SM -SN BKN009
     FM261100 28014G29KT 3SM -SHSN OVC025
     FM261800 27014G24KT P6SM VCSH BKN090
     FM262000 26012G22KT P6SM SCT250
     FM262300 21009KT P6SM BKN060
      AMD LTD TO CLD VIS AND WIND=

USA.gov is the U.S. government's official web portal to all federal, state and local government web resources and services.